X  Close Metar Aviation Weather Data     EHAM Amsterdam Airport Schiphol
Temperature
19°C Temperature
13°C Dewpoint
68% Humidity



Wind
32 KM/H
20 MPH
9 M/S
17 KTS



220°
SW
Current Conditions

Partly Cloudy Partly Cloudy
Pressure 1002.92 (hPa) - 29.62 (inHg)
Visibility 6.2 (mile) - 10 (km)
Airport
Airport-code EHAM

Location: Amsterdam Airport Schiphol
Distance: 32 (km)

Metar:
EHAM 301725Z 22017KT 190V250 9999 FEW033 19/13 Q1003 NOSIG

Time: 30-07-2021 19:25 CEST